メインページ
METAR-TAF:

METAR-TAF

空港 :

ウンベルト・デルガード空港

リスボン, ポルトガル

緯度: 38-46N, 経度: 009-08W, 海抜: 114m

現時点の気象観測

当レポートは17分前の10:00(UTC)に作成
北/北東の風 6kt、から東/南東の間で変化する
気温 20°C
湿度 88%
気圧 1017 hPa
視程10km以上
高度1200ftの雲はほとんどない
高度3500ftの雲はほとんどない, 積乱雲.
近辺でにわか雨

METAR: LPPT 211000Z 03006KT 350V120 9999 VCSH FEW012 FEW035CB 20/18 Q1017

時間: 11:17 (10:17 UTC)

予報

当レポートは5時間17分前の05:00(UTC)に作成
予報は21日の 06時(UTC)から 22日の 12時(UTC)まで有効
南東の風 12kt
視程10km以上
高度3500ftの雲はほとんどない, 積乱雲.
確率 40% :
21日の 06時(UTC)から 22日の 12時(UTC)まで一時的に
変向風 15kt、最大25ktの突風を伴う
視程: 5000m
高度2000ftの雲は散在している, 積乱雲.
激しい雷雨, 雨
21日の 09時(UTC)から 21日の 12時(UTC)まで徐々に
東/北東の風 8kt
21日の 15時(UTC)から 21日の 18時(UTC)まで徐々に
北/北西の風 12kt
21日の 21時(UTC)から 21日の 23時(UTC)まで徐々に
の風 7kt
高度3500ftの雲はほとんどない
22日の 08時(UTC)から 22日の 11時(UTC)まで徐々に
東/南東の風 7kt

TAF: LPPT 210500Z 2106/2212 13012KT 9999 FEW035CB PROB40 TEMPO 2106/2212 VRB15G25KT 5000 TSRA SCT020CB BECMG 2109/2112 06008KT BECMG 2115/2118 34012KT BECMG 2121/2123 36007KT FEW035 BECMG 2208/2211 12007KT

4,000以上の空港の気象観測と天気予報(METAR報とTAF報)

利用可能な観測所は地図上に黄色い丸と赤い丸で示す。

丸の上にカーソルを重ねると観測所名を参照できる。

次にクリックすると気象観測と天気予報を参照できる。

マップの切り替え:黒色「×」印の緑ボタンをクリックして拡大、「-」印の緑ボタンをクリックして縮小、緑色の三角印をクリックして隣りの地図に切り替え


METAR-TAF: